createdAt,value
2023-01-21T00:02:05.627Z,30.35
2023-01-21T00:07:08.224Z,30.58
2023-01-21T00:12:09.757Z,30.40
2023-01-21T00:17:11.334Z,31.63
2023-01-21T00:22:12.859Z,31.45
2023-01-21T00:27:14.357Z,30.48
2023-01-21T00:32:15.841Z,30.02
2023-01-21T00:37:17.450Z,30.48
2023-01-21T00:42:19.308Z,30.67
2023-01-21T00:47:20.847Z,30.63
2023-01-21T00:52:22.334Z,31.75
2023-01-21T00:57:23.818Z,30.35
2023-01-21T01:02:25.501Z,32.25
2023-01-21T01:07:27.109Z,30.88
2023-01-21T01:12:29.263Z,30.85
2023-01-21T01:17:30.811Z,31.23
2023-01-21T01:22:32.297Z,31.83
2023-01-21T01:27:33.825Z,31.63
2023-01-21T01:32:35.354Z,33.13
2023-01-21T01:37:36.888Z,32.70
2023-01-21T01:42:38.439Z,33.95
2023-01-21T01:47:45.297Z,33.55
2023-01-21T01:52:47.558Z,32.73
2023-01-21T01:57:53.473Z,31.33
2023-01-21T02:03:14.194Z,32.55
2023-01-21T02:08:16.115Z,33.55
2023-01-21T02:13:17.873Z,31.70
2023-01-21T02:18:31.261Z,30.95
2023-01-21T02:23:57.485Z,30.50
2023-01-21T02:29:20.681Z,31.13
2023-01-21T02:34:48.636Z,31.63
2023-01-21T02:40:08.219Z,28.73
2023-01-21T02:45:15.385Z,29.25
2023-01-21T02:50:19.685Z,28.98
2023-01-21T02:55:26.712Z,27.60
2023-01-21T03:00:45.100Z,28.90
2023-01-21T03:05:52.542Z,25.13
2023-01-21T03:11:15.251Z,27.20
2023-01-21T03:16:39.586Z,31.75
2023-01-21T03:21:41.257Z,31.02
2023-01-21T03:26:47.818Z,33.10
2023-01-21T03:31:54.097Z,30.48
2023-01-21T03:37:04.610Z,30.95
2023-01-21T03:42:06.796Z,29.30
2023-01-21T03:47:25.294Z,30.05
2023-01-21T03:52:27.368Z,29.45
2023-01-21T03:57:28.974Z,30.27
2023-01-21T04:02:30.527Z,31.13
2023-01-21T04:07:32.082Z,29.58
2023-01-21T04:12:33.681Z,30.48
2023-01-21T04:17:35.210Z,28.73
2023-01-21T04:22:36.779Z,27.88
2023-01-21T04:27:38.333Z,29.27
2023-01-21T04:32:39.873Z,27.85
2023-01-21T04:37:41.431Z,27.58
2023-01-21T04:42:43.145Z,27.77
2023-01-21T04:47:45.214Z,30.33
2023-01-21T04:52:46.759Z,30.02
2023-01-21T04:57:48.277Z,31.73
2023-01-21T05:02:49.845Z,30.65
2023-01-21T05:07:54.542Z,29.70
2023-01-21T05:12:56.099Z,31.00
2023-01-21T05:17:57.855Z,32.83
2023-01-21T05:22:59.439Z,32.58
2023-01-21T05:28:01.005Z,33.10
2023-01-21T05:33:02.503Z,32.05
2023-01-21T05:38:04.053Z,31.10
2023-01-21T05:43:05.552Z,34.47
2023-01-21T05:48:07.068Z,30.42
2023-01-21T05:53:08.588Z,30.85
2023-01-21T05:58:10.236Z,27.73
2023-01-21T06:03:13.555Z,35.92
2023-01-21T06:08:15.171Z,27.77
2023-01-21T06:13:16.971Z,28.52
2023-01-21T06:18:18.487Z,27.38
2023-01-21T06:23:20.049Z,27.15
2023-01-21T06:28:21.715Z,30.40
2023-01-21T06:33:23.404Z,33.53
2023-01-21T06:38:24.978Z,33.67
2023-01-21T06:43:26.475Z,32.65
2023-01-21T06:48:28.018Z,33.10
2023-01-21T06:53:29.513Z,32.95
2023-01-21T06:58:31.035Z,30.98
2023-01-21T07:03:32.704Z,29.25
2023-01-21T07:08:34.196Z,29.25
2023-01-21T07:13:35.748Z,27.13
2023-01-21T07:18:37.236Z,27.50
2023-01-21T07:23:38.811Z,25.95
2023-01-21T07:28:40.353Z,24.75
2023-01-21T07:33:41.895Z,25.63
2023-01-21T07:38:43.502Z,27.25
2023-01-21T07:43:47.813Z,27.23
2023-01-21T07:48:51.674Z,28.67
2023-01-21T07:53:56.651Z,29.13
2023-01-21T07:58:58.196Z,33.35
2023-01-21T08:04:00.894Z,33.72
2023-01-21T08:09:02.463Z,34.13
2023-01-21T08:14:03.978Z,34.17
2023-01-21T08:19:05.527Z,32.78
2023-01-21T08:24:07.235Z,32.60
2023-01-21T08:29:08.805Z,32.30
2023-01-21T08:34:10.334Z,33.13
2023-01-21T08:39:16.428Z,30.60
2023-01-21T08:44:18.005Z,31.58
2023-01-21T08:49:19.589Z,29.15
2023-01-21T08:54:21.415Z,29.65
2023-01-21T08:59:28.552Z,50.63
2023-01-21T09:17:20.690Z,36.30
2023-01-21T09:22:22.489Z,36.60
2023-01-21T09:33:42.175Z,37.38
2023-01-21T09:45:05.890Z,37.22
2023-01-21T09:50:20.838Z,35.53
2023-01-21T09:55:22.263Z,33.63
2023-01-21T10:00:36.770Z,31.90
2023-01-21T10:05:53.034Z,30.45
2023-01-21T10:11:12.084Z,29.77
2023-01-21T10:16:20.871Z,30.33
2023-01-21T10:21:29.530Z,31.90
2023-01-21T10:26:33.310Z,27.08
2023-01-21T10:31:41.610Z,27.27
2023-01-21T10:36:48.041Z,26.95
2023-01-21T10:42:11.134Z,27.30
2023-01-21T10:47:28.091Z,26.17
2023-01-21T10:52:45.159Z,25.98
2023-01-21T10:57:53.354Z,26.08
2023-01-21T11:03:00.247Z,24.63
2023-01-21T11:08:02.583Z,22.47
2023-01-21T11:13:06.311Z,29.08
2023-01-21T11:18:51.316Z,29.65
2023-01-21T11:23:56.980Z,27.10
2023-01-21T11:29:09.427Z,29.85
2023-01-21T11:34:17.481Z,30.10
2023-01-21T11:39:23.784Z,28.98
2023-01-21T11:44:25.589Z,29.30
2023-01-21T11:49:34.281Z,28.40
2023-01-21T11:54:39.541Z,27.05
2023-01-21T11:59:45.708Z,26.85
2023-01-21T12:05:13.458Z,28.50
2023-01-21T12:10:32.249Z,27.63
2023-01-21T12:15:48.987Z,26.35
2023-01-21T12:21:20.111Z,25.17
2023-01-21T12:26:25.399Z,26.40
2023-01-21T12:31:44.466Z,24.38
2023-01-21T12:37:15.501Z,26.95
2023-01-21T12:42:26.336Z,26.35
2023-01-21T12:47:31.977Z,25.90
2023-01-21T12:52:48.492Z,26.25
2023-01-21T12:58:03.606Z,25.08
2023-01-21T13:03:33.286Z,25.40
2023-01-21T13:08:54.779Z,22.17
2023-01-21T13:14:08.178Z,23.80
2023-01-21T13:19:13.766Z,27.58
2023-01-21T13:24:21.131Z,33.35
2023-01-21T13:29:26.537Z,28.98
2023-01-21T13:34:45.129Z,27.25
2023-01-21T13:39:49.248Z,24.60
2023-01-21T13:45:16.753Z,24.45
2023-01-21T13:50:51.380Z,24.10
2023-01-21T13:56:01.604Z,20.17
2023-01-21T14:01:25.581Z,20.67
2023-01-21T14:06:32.416Z,21.98
2023-01-21T14:11:43.822Z,22.75
2023-01-21T14:17:19.015Z,20.25
2023-01-21T14:22:42.150Z,21.50
2023-01-21T14:28:07.502Z,21.15
2023-01-21T14:33:17.477Z,21.55
2023-01-21T14:38:44.789Z,21.70
2023-01-21T14:43:49.124Z,22.25
2023-01-21T14:49:08.414Z,22.75
2023-01-21T14:54:25.393Z,20.80
2023-01-21T14:59:46.164Z,20.75
2023-01-21T15:04:59.865Z,22.75
2023-01-21T15:10:10.450Z,21.48
2023-01-21T15:15:34.329Z,20.30
2023-01-21T15:20:53.003Z,20.80
2023-01-21T15:26:12.759Z,20.48
2023-01-21T15:31:42.363Z,21.35
2023-01-21T15:36:47.853Z,20.65
2023-01-21T15:42:21.219Z,23.65
2023-01-21T15:47:41.163Z,20.48
2023-01-21T15:52:57.136Z,22.60
2023-01-21T15:58:36.322Z,21.38
2023-01-21T16:03:56.156Z,23.52
2023-01-21T16:09:03.063Z,26.00
2023-01-21T16:14:29.299Z,28.73
2023-01-21T16:19:35.309Z,28.25
2023-01-21T16:24:47.566Z,24.83
2023-01-21T16:30:02.178Z,24.98
2023-01-21T16:35:04.097Z,22.67
2023-01-21T16:40:08.670Z,22.25
2023-01-21T16:45:21.044Z,23.38
2023-01-21T16:50:32.803Z,24.13
2023-01-21T16:55:44.786Z,23.13
2023-01-21T17:01:16.022Z,23.27
2023-01-21T17:06:22.619Z,22.58
2023-01-21T17:11:26.251Z,22.85
2023-01-21T17:16:32.834Z,27.40
2023-01-21T17:21:45.037Z,28.20
2023-01-21T17:26:50.728Z,28.20
2023-01-21T17:31:56.624Z,25.75
2023-01-21T17:36:59.240Z,23.38
2023-01-21T17:42:04.714Z,23.15
2023-01-21T17:47:06.301Z,21.00
2023-01-21T17:52:19.503Z,20.95
2023-01-21T17:57:35.422Z,23.40
2023-01-21T18:02:36.982Z,24.45
2023-01-21T18:07:38.598Z,23.13
2023-01-21T18:12:40.203Z,24.55
2023-01-21T18:17:47.067Z,23.23
2023-01-21T18:22:49.811Z,25.17
2023-01-21T18:27:54.837Z,24.20
2023-01-21T18:32:56.738Z,29.90
2023-01-21T18:37:58.252Z,35.88
2023-01-21T18:42:59.752Z,35.55
2023-01-21T18:48:01.397Z,35.50
2023-01-21T18:53:02.948Z,32.70
2023-01-21T18:58:11.143Z,32.58
2023-01-21T19:03:14.104Z,31.58
2023-01-21T19:08:18.440Z,32.70
2023-01-21T19:13:20.547Z,32.42
2023-01-21T19:18:22.024Z,32.90
2023-01-21T19:23:23.747Z,31.65
2023-01-21T19:28:25.477Z,31.13
2023-01-21T19:33:27.020Z,36.08
2023-01-21T19:38:28.679Z,32.72
2023-01-21T19:43:30.225Z,31.73
2023-01-21T19:48:31.955Z,29.88
2023-01-21T19:53:33.493Z,26.27
2023-01-21T19:58:35.762Z,26.55
2023-01-21T20:03:38.779Z,25.35
2023-01-21T20:08:43.708Z,23.40
2023-01-21T20:13:45.277Z,22.50
2023-01-21T20:18:48.267Z,24.60
2023-01-21T20:23:49.840Z,24.88
2023-01-21T20:28:54.438Z,25.35
2023-01-21T20:33:56.370Z,25.45
2023-01-21T20:38:58.095Z,28.35
2023-01-21T20:43:59.684Z,21.10
2023-01-21T20:49:02.091Z,18.35
2023-01-21T20:54:03.930Z,17.13
2023-01-21T20:59:05.489Z,17.27
2023-01-21T21:04:07.053Z,17.75
2023-01-21T21:09:09.193Z,14.30
2023-01-21T21:14:13.507Z,12.02
2023-01-21T21:19:14.991Z,12.48
2023-01-21T21:24:16.576Z,12.18
2023-01-21T21:29:18.084Z,11.23
2023-01-21T21:34:22.103Z,10.02
2023-01-21T21:39:23.595Z,9.57
2023-01-21T21:44:25.136Z,9.77
2023-01-21T21:49:27.855Z,9.68
2023-01-21T21:54:29.876Z,10.95
2023-01-21T21:59:31.480Z,9.73
2023-01-21T22:04:33.387Z,8.90
2023-01-21T22:09:34.936Z,7.80
2023-01-21T22:14:36.450Z,7.55
2023-01-21T22:19:38.024Z,7.88
2023-01-21T22:24:39.544Z,8.98
2023-01-21T22:29:41.059Z,11.25
2023-01-21T22:34:43.960Z,7.40
2023-01-21T22:39:45.499Z,6.35
2023-01-21T22:44:46.997Z,5.30
2023-01-21T22:49:49.242Z,6.30
2023-01-21T22:54:51.342Z,7.13
2023-01-21T22:59:52.876Z,5.93
2023-01-21T23:04:54.437Z,5.88
2023-01-21T23:09:56.089Z,5.97
2023-01-21T23:14:57.582Z,6.60
2023-01-21T23:19:59.115Z,6.85
2023-01-21T23:25:00.634Z,7.00
2023-01-21T23:30:02.177Z,7.20
2023-01-21T23:35:03.844Z,7.68
2023-01-21T23:40:06.540Z,7.00
2023-01-21T23:45:08.498Z,7.40
2023-01-21T23:50:10.562Z,7.05
2023-01-21T23:55:12.785Z,7.45
